Native Sun — WDD2862 — position and weather

sailwx.info

Track history (hours):
 
Tides and Currents Weather Stations Pressure Air Temp Water Temp Dewpoint Dewpoint Depression Visibility Wind Speed Wind Dir Waves Ship Positions

Native Sun

Owner: SVELLING, ERIC, BARNEGAT LIGHT, NJ. More information available from US FCC via Universal Licensing System and Coast Guard Vessel Documentation Center.

Last reported at 2018-May-17 21:31 UTC. Time now 2018-May-20 13:22 UTC.
Position N 39°46' W 074°07'.

Length 14 m.

Type: Fishing. MMSI: 367120830.

Date/timePositionNaut miles runAvg speedWind from/ knotsBaromVisibWave heightAir tempDewpointWater temp
2018-May-17 21:31N 39°46' W 074°07'0 0.0
2018-May-17 21:01N 39°46' W 074°07'0 0.0
2018-May-17 20:55N 39°46' W 074°07'0 0.0
2018-May-17 20:29N 39°46' W 074°07'2 4.1
2018-May-17 19:56N 39°43' W 074°07'0 0.1
2018-May-17 19:11N 39°43' W 074°07'0 0.1
2018-May-17 18:47N 39°43' W 074°07'0 0.1
2018-May-17 18:23N 39°43' W 074°07'0 0.1
2018-May-17 17:59N 39°43' W 074°07'0 0.1
2018-May-17 17:17N 39°43' W 074°07'0 0.1
2018-May-17 16:59N 39°43' W 074°07'0 0.1
2018-May-17 16:23N 39°43' W 074°06'0 0.1
2018-May-17 15:53N 39°43' W 074°06'0 0.3
2018-May-17 15:28N 39°43' W 074°06'3 6.7
2018-May-17 14:57N 39°42' W 074°02'3 7.1
2018-May-17 14:30N 39°41' W 073°58'0 0.3
2018-May-17 13:49N 39°40' W 073°58'0 0.3
2018-May-17 13:01N 39°40' W 073°58'1 0.5
2018-May-17 11:37N 39°41' W 073°59'0 0.5
2018-May-17 11:26N 39°41' W 073°59'3 5.8
2018-May-17 11:00N 39°40' W 074°03'4 7.3
2018-May-17 10:29N 39°43' W 074°06'2 4.8
2018-May-17 09:59N 39°45' W 074°05'1 0.1
2018-May-16 20:32N 39°46' W 074°07'0 0.0
2018-May-16 20:20N 39°46' W 074°07'0 0.0
2018-May-16 19:57N 39°46' W 074°07'0 0.0
2018-May-16 19:12N 39°46' W 074°07'0 0.0
2018-May-16 18:59N 39°46' W 074°07'2 3.7
2018-May-16 18:28N 39°44' W 074°05'4 7.7
2018-May-16 18:00N 39°41' W 074°03'1 1.4
2018-May-16 17:27N 39°40' W 074°03'0 0.4
2018-May-16 16:57N 39°40' W 074°03'0 0.4
2018-May-16 16:15N 39°40' W 074°03'1 1.7
2018-May-16 15:52N 39°40' W 074°03'2 5.9
2018-May-16 15:30N 39°41' W 073°60'2 3.0
2018-May-16 14:58N 39°41' W 073°58'0 0.5
2018-May-16 14:30N 39°41' W 073°58'1 0.3
2018-May-16 12:00N 39°41' W 073°59'0 0.3
2018-May-16 11:30N 39°41' W 073°59'0 0.5
2018-May-16 10:58N 39°41' W 073°59'3 6.5
2018-May-16 10:29N 39°40' W 074°03'3 5.9
2018-May-16 10:00N 39°43' W 074°05'3 0.2
2018-May-15 20:28N 39°46' W 074°07'0 0.0
2018-May-15 19:43N 39°46' W 074°07'0 0.1
2018-May-15 19:28N 39°46' W 074°07'3 5.5
2018-May-15 19:00N 39°44' W 074°04'4 6.7
2018-May-15 18:27N 39°40' W 074°03'0 0.3
2018-May-15 17:46N 39°40' W 074°03'0 0.3
2018-May-15 16:10N 39°40' W 074°02'0 0.4
2018-May-15 15:55N 39°40' W 074°02'3 6.9
2018-May-15 15:29N 39°41' W 073°58'1 1.2
2018-May-15 15:00N 39°41' W 073°59'0 0.4
2018-May-15 14:30N 39°41' W 073°58'0 0.3
2018-May-15 13:54N 39°41' W 073°58'0 0.2
2018-May-15 12:48N 39°41' W 073°58'0 0.2
2018-May-15 11:36N 39°41' W 073°58'0 0.2
2018-May-15 11:24N 39°41' W 073°58'2 4.4
2018-May-15 11:00N 39°41' W 073°60'3 5.5
2018-May-15 10:28N 39°40' W 074°04'4 8.2
2018-May-15 09:57N 39°44' W 074°05'2 0.1
2018-May-14 20:03N 39°46' W 074°07'0 0.0
2018-May-14 19:57N 39°46' W 074°07'1 1.7
2018-May-14 19:30N 39°46' W 074°06'4 8.1
2018-May-14 18:59N 39°42' W 074°03'2 3.2
2018-May-14 18:28N 39°41' W 074°02'0 0.4
2018-May-14 17:49N 39°41' W 074°02'0 0.3
2018-May-14 17:07N 39°41' W 074°02'0 0.4
2018-May-14 16:53N 39°41' W 074°02'2 4.4
2018-May-14 16:30N 39°41' W 074°00'2 2.5
2018-May-14 15:52N 39°41' W 073°58'0 0.2
2018-May-14 15:28N 39°41' W 073°58'0 0.2
2018-May-14 14:46N 39°41' W 073°59'0 0.2
2018-May-14 13:52N 39°41' W 073°59'0 0.3
2018-May-14 13:16N 39°41' W 073°59'0 0.3
2018-May-14 12:52N 39°41' W 073°59'0 0.2
2018-May-14 11:52N 39°41' W 073°59'0 0.2
2018-May-14 11:28N 39°41' W 073°60'0 0.4
2018-May-14 10:58N 39°41' W 073°60'2 4.7
2018-May-14 10:29N 39°41' W 074°03'4 8.1
2018-May-14 09:58N 39°44' W 074°05'  
2018-May-11 18:57N 39°46' W 074°07'0 0.0
2018-May-11 18:21N 39°46' W 074°07'2 5.1
2018-May-11 18:00N 39°45' W 074°05'4 8.8
2018-May-11 17:30N 39°41' W 074°02'0 0.3
2018-May-11 16:58N 39°41' W 074°02'0 0.6
2018-May-11 16:22N 39°41' W 074°02'3 7.0
2018-May-11 15:59N 39°41' W 073°59'0 0.5
2018-May-11 15:30N 39°41' W 073°59'1 1.1
2018-May-11 14:46N 39°41' W 073°60'0 0.5
2018-May-11 14:21N 39°41' W 073°60'0 0.6
2018-May-11 13:39N 39°41' W 073°59'0 0.4
2018-May-11 13:27N 39°41' W 073°59'0 0.3
2018-May-11 12:57N 39°41' W 073°59'0 0.3
2018-May-11 12:12N 39°41' W 073°58'0 0.3
2018-May-11 11:54N 39°41' W 073°58'0 0.4
2018-May-11 11:24N 39°41' W 073°58'3 4.9
2018-May-11 10:49N 39°41' W 074°02'2 4.4
2018-May-11 10:28N 39°41' W 074°04'4 6.5
2018-May-11 09:55N 39°44' W 074°05'2 0.1
2018-May-10 16:45N 39°46' W 074°07'0 0.1
2018-May-10 16:23N 39°46' W 074°07'2 5.9
2018-May-10 15:58N 39°44' W 074°04'4 6.9
2018-May-10 15:27N 39°41' W 074°03'0 0.5
2018-May-10 14:48N 39°40' W 074°03'0 0.6
2018-May-10 14:15N 39°40' W 074°02'1 4.0
2018-May-10 13:58N 39°41' W 074°01'1 1.7
2018-May-10 13:23N 39°41' W 074°00'1 2.2
2018-May-10 12:57N 39°41' W 073°59'0 0.6
2018-May-10 12:30N 39°41' W 073°59'0 0.7
2018-May-10 12:00N 39°41' W 073°60'0 0.4
2018-May-10 11:30N 39°41' W 074°00'2 3.8
2018-May-10 11:00N 39°40' W 074°02'3 5.9
2018-May-10 10:30N 39°43' W 074°04'3 0.2
2018-May-09 17:15N 39°46' W 074°07'2 6.2
2018-May-09 16:56N 39°44' W 074°05'3 7.6
2018-May-09 16:29N 39°41' W 074°03'1 1.2
2018-May-09 15:46N 39°41' W 074°02'0 0.5
2018-May-09 15:22N 39°41' W 074°02'0 0.2
2018-May-09 14:57N 39°41' W 074°03'2 4.5
2018-May-09 14:30N 39°41' W 073°60'1 1.2
2018-May-09 13:25N 39°41' W 073°58'0 0.4
2018-May-09 12:58N 39°41' W 073°58'0 0.7
2018-May-09 12:23N 39°41' W 073°59'0 0.7
2018-May-09 11:49N 39°41' W 073°59'0 0.6
2018-May-09 11:28N 39°41' W 073°60'0 0.5
2018-May-09 10:58N 39°41' W 073°60'2 3.2
2018-May-09 10:30N 39°41' W 074°02'3 6.5
2018-May-09 10:00N 39°43' W 074°04'3 0.2
2018-May-08 18:40N 39°46' W 074°07'0 0.2
2018-May-08 18:30N 39°46' W 074°07'0 0.0
2018-May-08 17:50N 39°46' W 074°07'2 5.8
2018-May-08 17:30N 39°45' W 074°04'3 6.8
2018-May-08 17:00N 39°42' W 074°03'1 2.0
2018-May-08 16:20N 39°41' W 074°02'0 0.7
2018-May-08 15:43N 39°41' W 074°01'1 3.2
2018-May-08 15:25N 39°41' W 073°60'1 1.5
2018-May-08 14:39N 39°41' W 073°59'0 0.3
2018-May-08 13:27N 39°41' W 073°59'1 0.5
2018-May-08 11:23N 39°41' W 074°00'1 2.4
2018-May-08 10:55N 39°41' W 074°02'3 5.8
2018-May-08 10:29N 39°43' W 074°04'  
Track history (hours):
 
Tides and Currents Weather Stations Pressure Air Temp Water Temp Dewpoint Dewpoint Depression Visibility Wind Speed Wind Dir Waves Ship Positions

Native Sun

Owner: SVELLING, ERIC, BARNEGAT LIGHT, NJ. More information available from US FCC via Universal Licensing System and Coast Guard Vessel Documentation Center.

Last reported at 2018-May-17 21:31 UTC. Time now 2018-May-20 13:22 UTC.
Position N 39°46' W 074°07'.

Length 14 m.

Type: Fishing. MMSI: 367120830.

Date/timePositionNaut miles runAvg speedWind from/ knotsBaromVisibWave heightAir tempDewpointWater temp
2018-May-17 21:31N 39°46' W 074°07'0 0.0
2018-May-17 21:01N 39°46' W 074°07'0 0.0
2018-May-17 20:55N 39°46' W 074°07'0 0.0
2018-May-17 20:29N 39°46' W 074°07'2 4.1
2018-May-17 19:56N 39°43' W 074°07'0 0.1
2018-May-17 19:11N 39°43' W 074°07'0 0.1
2018-May-17 18:47N 39°43' W 074°07'0 0.1
2018-May-17 18:23N 39°43' W 074°07'0 0.1
2018-May-17 17:59N 39°43' W 074°07'0 0.1
2018-May-17 17:17N 39°43' W 074°07'0 0.1
2018-May-17 16:59N 39°43' W 074°07'0 0.1
2018-May-17 16:23N 39°43' W 074°06'0 0.1
2018-May-17 15:53N 39°43' W 074°06'0 0.3
2018-May-17 15:28N 39°43' W 074°06'3 6.7
2018-May-17 14:57N 39°42' W 074°02'3 7.1
2018-May-17 14:30N 39°41' W 073°58'0 0.3
2018-May-17 13:49N 39°40' W 073°58'0 0.3
2018-May-17 13:01N 39°40' W 073°58'1 0.5
2018-May-17 11:37N 39°41' W 073°59'0 0.5
2018-May-17 11:26N 39°41' W 073°59'3 5.8
2018-May-17 11:00N 39°40' W 074°03'4 7.3
2018-May-17 10:29N 39°43' W 074°06'2 4.8
2018-May-17 09:59N 39°45' W 074°05'1 0.1
2018-May-16 20:32N 39°46' W 074°07'0 0.0
2018-May-16 20:20N 39°46' W 074°07'0 0.0
2018-May-16 19:57N 39°46' W 074°07'0 0.0
2018-May-16 19:12N 39°46' W 074°07'0 0.0
2018-May-16 18:59N 39°46' W 074°07'2 3.7
2018-May-16 18:28N 39°44' W 074°05'4 7.7
2018-May-16 18:00N 39°41' W 074°03'1 1.4
2018-May-16 17:27N 39°40' W 074°03'0 0.4
2018-May-16 16:57N 39°40' W 074°03'0 0.4
2018-May-16 16:15N 39°40' W 074°03'1 1.7
2018-May-16 15:52N 39°40' W 074°03'2 5.9
2018-May-16 15:30N 39°41' W 073°60'2 3.0
2018-May-16 14:58N 39°41' W 073°58'0 0.5
2018-May-16 14:30N 39°41' W 073°58'1 0.3
2018-May-16 12:00N 39°41' W 073°59'0 0.3
2018-May-16 11:30N 39°41' W 073°59'0 0.5
2018-May-16 10:58N 39°41' W 073°59'3 6.5
2018-May-16 10:29N 39°40' W 074°03'3 5.9
2018-May-16 10:00N 39°43' W 074°05'3 0.2
2018-May-15 20:28N 39°46' W 074°07'0 0.0
2018-May-15 19:43N 39°46' W 074°07'0 0.1
2018-May-15 19:28N 39°46' W 074°07'3 5.5
2018-May-15 19:00N 39°44' W 074°04'4 6.7
2018-May-15 18:27N 39°40' W 074°03'0 0.3
2018-May-15 17:46N 39°40' W 074°03'0 0.3
2018-May-15 16:10N 39°40' W 074°02'0 0.4
2018-May-15 15:55N 39°40' W 074°02'3 6.9
2018-May-15 15:29N 39°41' W 073°58'1 1.2
2018-May-15 15:00N 39°41' W 073°59'0 0.4
2018-May-15 14:30N 39°41' W 073°58'0 0.3
2018-May-15 13:54N 39°41' W 073°58'0 0.2
2018-May-15 12:48N 39°41' W 073°58'0 0.2
2018-May-15 11:36N 39°41' W 073°58'0 0.2
2018-May-15 11:24N 39°41' W 073°58'2 4.4
2018-May-15 11:00N 39°41' W 073°60'3 5.5
2018-May-15 10:28N 39°40' W 074°04'4 8.2
2018-May-15 09:57N 39°44' W 074°05'2 0.1
2018-May-14 20:03N 39°46' W 074°07'0 0.0
2018-May-14 19:57N 39°46' W 074°07'1 1.7
2018-May-14 19:30N 39°46' W 074°06'4 8.1
2018-May-14 18:59N 39°42' W 074°03'2 3.2
2018-May-14 18:28N 39°41' W 074°02'0 0.4
2018-May-14 17:49N 39°41' W 074°02'0 0.3
2018-May-14 17:07N 39°41' W 074°02'0 0.4
2018-May-14 16:53N 39°41' W 074°02'2 4.4
2018-May-14 16:30N 39°41' W 074°00'2 2.5
2018-May-14 15:52N 39°41' W 073°58'0 0.2
2018-May-14 15:28N 39°41' W 073°58'0 0.2
2018-May-14 14:46N 39°41' W 073°59'0 0.2
2018-May-14 13:52N 39°41' W 073°59'0 0.3
2018-May-14 13:16N 39°41' W 073°59'0 0.3
2018-May-14 12:52N 39°41' W 073°59'0 0.2
2018-May-14 11:52N 39°41' W 073°59'0 0.2
2018-May-14 11:28N 39°41' W 073°60'0 0.4
2018-May-14 10:58N 39°41' W 073°60'2 4.7
2018-May-14 10:29N 39°41' W 074°03'4 8.1
2018-May-14 09:58N 39°44' W 074°05'  
2018-May-11 18:57N 39°46' W 074°07'0 0.0
2018-May-11 18:21N 39°46' W 074°07'2 5.1
2018-May-11 18:00N 39°45' W 074°05'4 8.8
2018-May-11 17:30N 39°41' W 074°02'0 0.3
2018-May-11 16:58N 39°41' W 074°02'0 0.6
2018-May-11 16:22N 39°41' W 074°02'3 7.0
2018-May-11 15:59N 39°41' W 073°59'0 0.5
2018-May-11 15:30N 39°41' W 073°59'1 1.1
2018-May-11 14:46N 39°41' W 073°60'0 0.5
2018-May-11 14:21N 39°41' W 073°60'0 0.6
2018-May-11 13:39N 39°41' W 073°59'0 0.4
2018-May-11 13:27N 39°41' W 073°59'0 0.3
2018-May-11 12:57N 39°41' W 073°59'0 0.3
2018-May-11 12:12N 39°41' W 073°58'0 0.3
2018-May-11 11:54N 39°41' W 073°58'0 0.4
2018-May-11 11:24N 39°41' W 073°58'3 4.9
2018-May-11 10:49N 39°41' W 074°02'2 4.4
2018-May-11 10:28N 39°41' W 074°04'4 6.5
2018-May-11 09:55N 39°44' W 074°05'2 0.1
2018-May-10 16:45N 39°46' W 074°07'0 0.1
2018-May-10 16:23N 39°46' W 074°07'2 5.9
2018-May-10 15:58N 39°44' W 074°04'4 6.9
2018-May-10 15:27N 39°41' W 074°03'0 0.5
2018-May-10 14:48N 39°40' W 074°03'0 0.6
2018-May-10 14:15N 39°40' W 074°02'1 4.0
2018-May-10 13:58N 39°41' W 074°01'1 1.7
2018-May-10 13:23N 39°41' W 074°00'1 2.2
2018-May-10 12:57N 39°41' W 073°59'0 0.6
2018-May-10 12:30N 39°41' W 073°59'0 0.7
2018-May-10 12:00N 39°41' W 073°60'0 0.4
2018-May-10 11:30N 39°41' W 074°00'2 3.8
2018-May-10 11:00N 39°40' W 074°02'3 5.9
2018-May-10 10:30N 39°43' W 074°04'3 0.2
2018-May-09 17:15N 39°46' W 074°07'2 6.2
2018-May-09 16:56N 39°44' W 074°05'3 7.6
2018-May-09 16:29N 39°41' W 074°03'1 1.2
2018-May-09 15:46N 39°41' W 074°02'0 0.5
2018-May-09 15:22N 39°41' W 074°02'0 0.2
2018-May-09 14:57N 39°41' W 074°03'2 4.5
2018-May-09 14:30N 39°41' W 073°60'1 1.2
2018-May-09 13:25N 39°41' W 073°58'0 0.4
2018-May-09 12:58N 39°41' W 073°58'0 0.7
2018-May-09 12:23N 39°41' W 073°59'0 0.7
2018-May-09 11:49N 39°41' W 073°59'0 0.6
2018-May-09 11:28N 39°41' W 073°60'0 0.5
2018-May-09 10:58N 39°41' W 073°60'2 3.2
2018-May-09 10:30N 39°41' W 074°02'3 6.5
2018-May-09 10:00N 39°43' W 074°04'3 0.2
2018-May-08 18:40N 39°46' W 074°07'0 0.2
2018-May-08 18:30N 39°46' W 074°07'0 0.0
2018-May-08 17:50N 39°46' W 074°07'2 5.8
2018-May-08 17:30N 39°45' W 074°04'3 6.8
2018-May-08 17:00N 39°42' W 074°03'1 2.0
2018-May-08 16:20N 39°41' W 074°02'0 0.7
2018-May-08 15:43N 39°41' W 074°01'1 3.2
2018-May-08 15:25N 39°41' W 073°60'1 1.5
2018-May-08 14:39N 39°41' W 073°59'0 0.3
2018-May-08 13:27N 39°41' W 073°59'1 0.5
2018-May-08 11:23N 39°41' W 074°00'1 2.4
2018-May-08 10:55N 39°41' W 074°02'3 5.8
2018-May-08 10:29N 39°43' W 074°04'  

Dump ship's entire track history